sensor_id;sensor_type;location;lat;lon;timestamp;pressure;altitude;pressure_sealevel;temperature;humidity
17764;BME280;22245;52.832;13.816;2024-02-26T00:01:39;100269.16;;;2.40;95.07
17764;BME280;22245;52.832;13.816;2024-02-26T00:05:01;100269.16;;;2.40;95.08
17764;BME280;22245;52.832;13.816;2024-02-26T00:08:23;100264.94;;;2.38;95.02
17764;BME280;22245;52.832;13.816;2024-02-26T00:11:44;100265.88;;;2.37;94.62
17764;BME280;22245;52.832;13.816;2024-02-26T00:15:07;100260.72;;;2.35;94.92
17764;BME280;22245;52.832;13.816;2024-02-26T00:18:30;100259.78;;;2.36;95.10
17764;BME280;22245;52.832;13.816;2024-02-26T00:21:52;100256.28;;;2.36;95.55
17764;BME280;22245;52.832;13.816;2024-02-26T00:25:16;100254.59;;;2.35;95.36
17764;BME280;22245;52.832;13.816;2024-02-26T00:28:38;100255.53;;;2.34;96.00
17764;BME280;22245;52.832;13.816;2024-02-26T00:31:59;100254.13;;;2.28;95.95
17764;BME280;22245;52.832;13.816;2024-02-26T00:35:22;100242.84;;;2.26;95.10
17764;BME280;22245;52.832;13.816;2024-02-26T00:38:43;100238.69;;;2.22;95.47
17764;BME280;22245;52.832;13.816;2024-02-26T00:42:06;100236.19;;;2.20;95.16
17764;BME280;22245;52.832;13.816;2024-02-26T00:45:28;100237.88;;;2.21;95.08
17764;BME280;22245;52.832;13.816;2024-02-26T00:48:52;100238.88;;;2.19;95.21
17764;BME280;22245;52.832;13.816;2024-02-26T00:52:15;100230.34;;;2.15;94.76
17764;BME280;22245;52.832;13.816;2024-02-26T00:55:36;100218.16;;;2.14;95.13
17764;BME280;22245;52.832;13.816;2024-02-26T00:58:58;100228.91;;;2.09;94.92
17764;BME280;22245;52.832;13.816;2024-02-26T01:02:20;100225.59;;;2.06;95.10
17764;BME280;22245;52.832;13.816;2024-02-26T01:05:42;100229.34;;;2.01;95.05
17764;BME280;22245;52.832;13.816;2024-02-26T01:09:06;100231.69;;;1.92;95.44
17764;BME280;22245;52.832;13.816;2024-02-26T01:12:28;100226.56;;;1.88;95.48
17764;BME280;22245;52.832;13.816;2024-02-26T01:15:50;100225.00;;;1.86;94.81
17764;BME280;22245;52.832;13.816;2024-02-26T01:19:11;100217.53;;;1.78;94.66
17764;BME280;22245;52.832;13.816;2024-02-26T01:22:33;100221.44;;;1.71;94.49
17764;BME280;22245;52.832;13.816;2024-02-26T01:25:56;100218.16;;;1.67;94.46
17764;BME280;22245;52.832;13.816;2024-02-26T01:29:18;100229.09;;;1.59;94.68
17764;BME280;22245;52.832;13.816;2024-02-26T01:32:39;100229.69;;;1.49;94.94
17764;BME280;22245;52.832;13.816;2024-02-26T01:36:01;100232.22;;;1.50;94.46
17764;BME280;22245;52.832;13.816;2024-02-26T01:39:22;100224.63;;;1.46;94.75
17764;BME280;22245;52.832;13.816;2024-02-26T01:42:46;100223.09;;;1.41;94.74
17764;BME280;22245;52.832;13.816;2024-02-26T01:46:12;100229.16;;;1.42;94.99
17764;BME280;22245;52.832;13.816;2024-02-26T01:49:35;100231.03;;;1.40;95.35
17764;BME280;22245;52.832;13.816;2024-02-26T01:52:57;100237.16;;;1.40;95.11
17764;BME280;22245;52.832;13.816;2024-02-26T01:56:19;100229.44;;;1.37;95.00
17764;BME280;22245;52.832;13.816;2024-02-26T01:59:44;100226.06;;;1.35;94.94
17764;BME280;22245;52.832;13.816;2024-02-26T02:03:06;100228.06;;;1.30;95.16
17764;BME280;22245;52.832;13.816;2024-02-26T02:06:28;100223.16;;;1.24;96.17
17764;BME280;22245;52.832;13.816;2024-02-26T02:09:50;100220.53;;;1.24;96.56
17764;BME280;22245;52.832;13.816;2024-02-26T02:13:11;100217.31;;;1.19;96.74
17764;BME280;22245;52.832;13.816;2024-02-26T02:16:34;100219.88;;;1.20;96.48
17764;BME280;22245;52.832;13.816;2024-02-26T02:19:55;100218.94;;;1.21;96.49
17764;BME280;22245;52.832;13.816;2024-02-26T02:23:18;100215.56;;;1.19;96.74
17764;BME280;22245;52.832;13.816;2024-02-26T02:26:40;100224.44;;;1.17;96.22
17764;BME280;22245;52.832;13.816;2024-02-26T02:30:02;100220.22;;;1.14;96.48
17764;BME280;22245;52.832;13.816;2024-02-26T02:33:26;100226.47;;;1.11;97.54
17764;BME280;22245;52.832;13.816;2024-02-26T02:36:49;100225.53;;;1.12;97.83
17764;BME280;22245;52.832;13.816;2024-02-26T02:40:14;100227.28;;;1.12;98.66
17764;BME280;22245;52.832;13.816;2024-02-26T02:43:35;100231.69;;;1.11;98.32
17764;BME280;22245;52.832;13.816;2024-02-26T02:46:58;100232.88;;;1.06;98.58
17764;BME280;22245;52.832;13.816;2024-02-26T02:50:19;100223.41;;;1.03;98.04
17764;BME280;22245;52.832;13.816;2024-02-26T02:53:41;100235.66;;;1.03;98.27
17764;BME280;22245;52.832;13.816;2024-02-26T02:57:04;100242.59;;;1.04;97.83
17764;BME280;22245;52.832;13.816;2024-02-26T03:00:26;100236.59;;;1.01;97.53
17764;BME280;22245;52.832;13.816;2024-02-26T03:03:48;100242.69;;;1.02;98.04
17764;BME280;22245;52.832;13.816;2024-02-26T03:07:10;100235.59;;;1.04;97.90
17764;BME280;22245;52.832;13.816;2024-02-26T03:10:32;100229.31;;;1.07;98.56
17764;BME280;22245;52.832;13.816;2024-02-26T03:13:55;100236.44;;;1.05;100.00
17764;BME280;22245;52.832;13.816;2024-02-26T03:17:16;100229.16;;;1.10;100.00
17764;BME280;22245;52.832;13.816;2024-02-26T03:20:38;100228.97;;;1.13;100.00
17764;BME280;22245;52.832;13.816;2024-02-26T03:24:00;100230.72;;;1.14;100.00
17764;BME280;22245;52.832;13.816;2024-02-26T03:27:22;100228.84;;;1.16;100.00
17764;BME280;22245;52.832;13.816;2024-02-26T03:30:45;100228.69;;;1.19;100.00
17764;BME280;22245;52.832;13.816;2024-02-26T03:34:06;100233.81;;;1.21;100.00
17764;BME280;22245;52.832;13.816;2024-02-26T03:37:28;100232.06;;;1.21;100.00
17764;BME280;22245;52.832;13.816;2024-02-26T03:40:49;100231.19;;;1.21;100.00
17764;BME280;22245;52.832;13.816;2024-02-26T03:44:10;100233.06;;;1.19;100.00
17764;BME280;22245;52.832;13.816;2024-02-26T03:47:33;100236.72;;;1.16;100.00
17764;BME280;22245;52.832;13.816;2024-02-26T03:50:55;100248.97;;;1.15;100.00
17764;BME280;22245;52.832;13.816;2024-02-26T03:54:16;100243.72;;;1.15;100.00
17764;BME280;22245;52.832;13.816;2024-02-26T03:57:38;100237.66;;;1.15;100.00
17764;BME280;22245;52.832;13.816;2024-02-26T04:01:00;100252.53;;;1.14;100.00
17764;BME280;22245;52.832;13.816;2024-02-26T04:04:23;100254.44;;;1.11;100.00
17764;BME280;22245;52.832;13.816;2024-02-26T04:07:45;100263.25;;;1.10;100.00
17764;BME280;22245;52.832;13.816;2024-02-26T04:11:06;100260.63;;;1.10;100.00
17764;BME280;22245;52.832;13.816;2024-02-26T04:14:28;100255.31;;;1.11;100.00
17764;BME280;22245;52.832;13.816;2024-02-26T04:17:49;100260.63;;;1.10;100.00
17764;BME280;22245;52.832;13.816;2024-02-26T04:21:13;100262.31;;;1.11;100.00
17764;BME280;22245;52.832;13.816;2024-02-26T04:24:36;100266.56;;;1.13;100.00
17764;BME280;22245;52.832;13.816;2024-02-26T04:27:57;100268.25;;;1.14;100.00
17764;BME280;22245;52.832;13.816;2024-02-26T04:31:19;100266.50;;;1.15;100.00
17764;BME280;22245;52.832;13.816;2024-02-26T04:34:40;100274.19;;;1.18;100.00
17764;BME280;22245;52.832;13.816;2024-02-26T04:38:04;100271.47;;;1.20;100.00
17764;BME280;22245;52.832;13.816;2024-02-26T04:41:25;100269.03;;;1.17;100.00
17764;BME280;22245;52.832;13.816;2024-02-26T04:44:46;100271.81;;;1.13;100.00
17764;BME280;22245;52.832;13.816;2024-02-26T04:48:08;100271.66;;;1.17;100.00
17764;BME280;22245;52.832;13.816;2024-02-26T04:51:30;100275.19;;;1.15;100.00
17764;BME280;22245;52.832;13.816;2024-02-26T04:54:53;100278.69;;;1.16;100.00
17764;BME280;22245;52.832;13.816;2024-02-26T04:58:14;100284.69;;;1.18;100.00
17764;BME280;22245;52.832;13.816;2024-02-26T05:01:35;100290.09;;;1.15;100.00
17764;BME280;22245;52.832;13.816;2024-02-26T05:04:58;100292.03;;;1.11;100.00
17764;BME280;22245;52.832;13.816;2024-02-26T05:08:20;100293.88;;;1.09;100.00
17764;BME280;22245;52.832;13.816;2024-02-26T05:11:42;100294.72;;;1.10;100.00
17764;BME280;22245;52.832;13.816;2024-02-26T05:15:05;100295.47;;;1.12;100.00
17764;BME280;22245;52.832;13.816;2024-02-26T05:18:27;100297.19;;;1.13;100.00
17764;BME280;22245;52.832;13.816;2024-02-26T05:21:49;100308.53;;;1.13;100.00
17764;BME280;22245;52.832;13.816;2024-02-26T05:25:11;100311.22;;;1.12;100.00
17764;BME280;22245;52.832;13.816;2024-02-26T05:28:33;100319.88;;;1.14;100.00
17764;BME280;22245;52.832;13.816;2024-02-26T05:31:55;100320.72;;;1.14;100.00
17764;BME280;22245;52.832;13.816;2024-02-26T05:35:17;100330.28;;;1.15;100.00
17764;BME280;22245;52.832;13.816;2024-02-26T05:38:38;100327.66;;;1.15;100.00
17764;BME280;22245;52.832;13.816;2024-02-26T05:42:00;100338.91;;;1.18;100.00
17764;BME280;22245;52.832;13.816;2024-02-26T05:45:23;100335.47;;;1.17;100.00
17764;BME280;22245;52.832;13.816;2024-02-26T05:48:47;100338.09;;;1.17;99.45
17764;BME280;22245;52.832;13.816;2024-02-26T05:52:09;100350.44;;;1.15;100.00
17764;BME280;22245;52.832;13.816;2024-02-26T05:55:30;100357.44;;;1.14;99.31
17764;BME280;22245;52.832;13.816;2024-02-26T05:58:51;100349.56;;;1.14;99.95
17764;BME280;22245;52.832;13.816;2024-02-26T06:02:15;100353.13;;;1.13;99.47
17764;BME280;22245;52.832;13.816;2024-02-26T06:05:36;100353.34;;;1.09;97.93
17764;BME280;22245;52.832;13.816;2024-02-26T06:08:58;100350.06;;;1.05;97.71
17764;BME280;22245;52.832;13.816;2024-02-26T06:12:20;100351.97;;;1.01;98.64
17764;BME280;22245;52.832;13.816;2024-02-26T06:15:42;100360.78;;;1.00;98.34
17764;BME280;22245;52.832;13.816;2024-02-26T06:19:05;100359.94;;;1.00;97.97
17764;BME280;22245;52.832;13.816;2024-02-26T06:22:30;100373.22;;;0.97;98.22
17764;BME280;22245;52.832;13.816;2024-02-26T06:25:51;100374.19;;;0.94;98.12
17764;BME280;22245;52.832;13.816;2024-02-26T06:29:13;100366.50;;;0.91;98.62
17764;BME280;22245;52.832;13.816;2024-02-26T06:32:34;100361.31;;;0.90;98.52
17764;BME280;22245;52.832;13.816;2024-02-26T06:35:57;100369.88;;;0.93;99.45
17764;BME280;22245;52.832;13.816;2024-02-26T06:39:19;100374.97;;;0.96;100.00
17764;BME280;22245;52.832;13.816;2024-02-26T06:42:41;100375.50;;;1.03;100.00
17764;BME280;22245;52.832;13.816;2024-02-26T06:46:07;100379.66;;;1.07;100.00
17764;BME280;22245;52.832;13.816;2024-02-26T06:49:29;100377.72;;;1.11;100.00
17764;BME280;22245;52.832;13.816;2024-02-26T06:52:52;100388.16;;;1.12;100.00
17764;BME280;22245;52.832;13.816;2024-02-26T06:56:14;100386.22;;;1.16;100.00
17764;BME280;22245;52.832;13.816;2024-02-26T06:59:35;100393.84;;;1.21;100.00
17764;BME280;22245;52.832;13.816;2024-02-26T07:02:57;100403.34;;;1.23;100.00
17764;BME280;22245;52.832;13.816;2024-02-26T07:06:19;100408.44;;;1.26;100.00
17764;BME280;22245;52.832;13.816;2024-02-26T07:09:43;100401.22;;;1.30;100.00
17764;BME280;22245;52.832;13.816;2024-02-26T07:13:04;100397.44;;;1.36;100.00
17764;BME280;22245;52.832;13.816;2024-02-26T07:16:26;100402.47;;;1.40;100.00
17764;BME280;22245;52.832;13.816;2024-02-26T07:19:48;100399.50;;;1.47;100.00
17764;BME280;22245;52.832;13.816;2024-02-26T07:23:10;100403.59;;;1.52;100.00
17764;BME280;22245;52.832;13.816;2024-02-26T07:26:32;100409.44;;;1.57;100.00
17764;BME280;22245;52.832;13.816;2024-02-26T07:29:54;100418.16;;;1.58;100.00
17764;BME280;22245;52.832;13.816;2024-02-26T07:33:15;100419.28;;;1.70;100.00
17764;BME280;22245;52.832;13.816;2024-02-26T07:36:37;100419.72;;;1.78;100.00
17764;BME280;22245;52.832;13.816;2024-02-26T07:39:58;100420.84;;;1.90;100.00
17764;BME280;22245;52.832;13.816;2024-02-26T07:43:21;100430.78;;;2.01;100.00
17764;BME280;22245;52.832;13.816;2024-02-26T07:46:43;100414.50;;;2.10;100.00
17764;BME280;22245;52.832;13.816;2024-02-26T07:50:05;100430.59;;;2.20;100.00
17764;BME280;22245;52.832;13.816;2024-02-26T07:53:27;100425.53;;;2.33;100.00
17764;BME280;22245;52.832;13.816;2024-02-26T07:56:48;100426.69;;;2.43;100.00
17764;BME280;22245;52.832;13.816;2024-02-26T08:00:12;100428.53;;;2.57;100.00
17764;BME280;22245;52.832;13.816;2024-02-26T08:03:37;100428.59;;;2.72;100.00
17764;BME280;22245;52.832;13.816;2024-02-26T08:06:58;100430.44;;;2.86;100.00
17764;BME280;22245;52.832;13.816;2024-02-26T08:10:20;100432.25;;;3.00;100.00
17764;BME280;22245;52.832;13.816;2024-02-26T08:13:41;100435.03;;;3.13;100.00
17764;BME280;22245;52.832;13.816;2024-02-26T08:17:04;100428.94;;;3.27;100.00
17764;BME280;22245;52.832;13.816;2024-02-26T08:20:26;100425.56;;;3.39;100.00
17764;BME280;22245;52.832;13.816;2024-02-26T08:23:48;100425.00;;;3.48;100.00
17764;BME280;22245;52.832;13.816;2024-02-26T08:27:10;100426.78;;;3.62;100.00
17764;BME280;22245;52.832;13.816;2024-02-26T08:30:32;100433.00;;;3.76;100.00
17764;BME280;22245;52.832;13.816;2024-02-26T08:33:56;100433.19;;;3.87;100.00
17764;BME280;22245;52.832;13.816;2024-02-26T08:37:19;100427.06;;;4.01;100.00
17764;BME280;22245;52.832;13.816;2024-02-26T08:40:41;100430.69;;;4.13;100.00
17764;BME280;22245;52.832;13.816;2024-02-26T08:44:02;100416.00;;;4.24;100.00
17764;BME280;22245;52.832;13.816;2024-02-26T08:47:24;100416.16;;;4.35;100.00
17764;BME280;22245;52.832;13.816;2024-02-26T08:50:47;100416.28;;;4.46;100.00
17764;BME280;22245;52.832;13.816;2024-02-26T08:54:09;100422.84;;;4.54;100.00
17764;BME280;22245;52.832;13.816;2024-02-26T08:57:31;100422.38;;;4.61;100.00
17764;BME280;22245;52.832;13.816;2024-02-26T09:00:54;100425.03;;;4.74;100.00
17764;BME280;22245;52.832;13.816;2024-02-26T09:04:16;100430.84;;;4.80;100.00
17764;BME280;22245;52.832;13.816;2024-02-26T09:07:38;100416.44;;;4.85;99.49
17764;BME280;22245;52.832;13.816;2024-02-26T09:11:00;100421.81;;;4.97;99.75
17764;BME280;22245;52.832;13.816;2024-02-26T09:14:22;100424.56;;;5.08;98.86
17764;BME280;22245;52.832;13.816;2024-02-26T09:17:47;100421.22;;;5.19;98.28
17764;BME280;22245;52.832;13.816;2024-02-26T09:21:10;100427.16;;;5.22;97.65
17764;BME280;22245;52.832;13.816;2024-02-26T09:24:34;100427.38;;;5.32;97.70
17764;BME280;22245;52.832;13.816;2024-02-26T09:27:56;100427.25;;;5.47;97.24
17764;BME280;22245;52.832;13.816;2024-02-26T09:31:17;100421.13;;;5.59;96.85
17764;BME280;22245;52.832;13.816;2024-02-26T09:34:40;100422.19;;;5.70;96.56
17764;BME280;22245;52.832;13.816;2024-02-26T09:38:02;100428.81;;;5.75;95.94
17764;BME280;22245;52.832;13.816;2024-02-26T09:41:27;100423.75;;;5.85;95.65
17764;BME280;22245;52.832;13.816;2024-02-26T09:44:51;100429.31;;;5.93;95.52
17764;BME280;22245;52.832;13.816;2024-02-26T09:48:15;100431.34;;;6.03;94.88
17764;BME280;22245;52.832;13.816;2024-02-26T09:51:39;100431.97;;;6.06;95.33
17764;BME280;22245;52.832;13.816;2024-02-26T09:55:01;100431.44;;;6.14;95.07
17764;BME280;22245;52.832;13.816;2024-02-26T09:58:27;100434.38;;;6.22;95.16
17764;BME280;22245;52.832;13.816;2024-02-26T10:01:50;100434.44;;;6.34;94.73
17764;BME280;22245;52.832;13.816;2024-02-26T10:05:12;100434.94;;;6.39;94.81
17764;BME280;22245;52.832;13.816;2024-02-26T10:08:36;100428.75;;;6.51;94.49
17764;BME280;22245;52.832;13.816;2024-02-26T10:11:58;100439.63;;;6.60;94.95
17764;BME280;22245;52.832;13.816;2024-02-26T10:15:22;100439.91;;;6.68;94.23
17764;BME280;22245;52.832;13.816;2024-02-26T10:18:47;100432.00;;;6.79;94.13
17764;BME280;22245;52.832;13.816;2024-02-26T10:22:12;100436.63;;;6.89;94.27
17764;BME280;22245;52.832;13.816;2024-02-26T10:25:33;100440.25;;;6.99;93.74
17764;BME280;22245;52.832;13.816;2024-02-26T10:28:59;100443.81;;;7.11;93.18
17764;BME280;22245;52.832;13.816;2024-02-26T10:32:22;100447.56;;;7.20;92.12
17764;BME280;22245;52.832;13.816;2024-02-26T10:35:45;100442.38;;;7.30;91.65
17764;BME280;22245;52.832;13.816;2024-02-26T10:39:07;100446.88;;;7.41;90.85
17764;BME280;22245;52.832;13.816;2024-02-26T10:42:30;100447.84;;;7.51;89.98
17764;BME280;22245;52.832;13.816;2024-02-26T10:45:54;100447.75;;;7.64;88.61
17764;BME280;22245;52.832;13.816;2024-02-26T10:49:18;100441.22;;;7.68;88.12
17764;BME280;22245;52.832;13.816;2024-02-26T10:52:42;100437.75;;;7.79;86.68
17764;BME280;22245;52.832;13.816;2024-02-26T10:56:05;100439.19;;;7.83;86.04
17764;BME280;22245;52.832;13.816;2024-02-26T10:59:29;100431.84;;;7.98;85.00
17764;BME280;22245;52.832;13.816;2024-02-26T11:02:54;100423.03;;;8.09;85.15
17764;BME280;22245;52.832;13.816;2024-02-26T11:06:21;100435.44;;;8.20;84.26
17764;BME280;22245;52.832;13.816;2024-02-26T11:09:44;100436.22;;;8.32;82.84
17764;BME280;22245;52.832;13.816;2024-02-26T11:13:14;100436.47;;;8.40;81.25
17764;BME280;22245;52.832;13.816;2024-02-26T11:16:40;100424.38;;;8.47;79.61
17764;BME280;22245;52.832;13.816;2024-02-26T11:20:32;100429.69;;;8.59;80.17
17764;BME280;22245;52.832;13.816;2024-02-26T11:23:56;100433.50;;;8.66;79.33
17764;BME280;22245;52.832;13.816;2024-02-26T11:27:19;100424.81;;;8.75;78.79
17764;BME280;22245;52.832;13.816;2024-02-26T11:30:46;100426.34;;;8.78;78.19
17764;BME280;22245;52.832;13.816;2024-02-26T11:34:09;100427.41;;;8.87;78.08
17764;BME280;22245;52.832;13.816;2024-02-26T11:37:32;100428.47;;;8.95;76.60
17764;BME280;22245;52.832;13.816;2024-02-26T11:41:01;100433.97;;;9.04;76.17
17764;BME280;22245;52.832;13.816;2024-02-26T11:44:32;100432.63;;;9.09;75.38
17764;BME280;22245;52.832;13.816;2024-02-26T11:47:55;100433.53;;;9.20;76.04
17764;BME280;22245;52.832;13.816;2024-02-26T11:51:25;100431.91;;;9.29;74.82
17764;BME280;22245;52.832;13.816;2024-02-26T11:54:48;100436.81;;;9.33;74.43
17764;BME280;22245;52.832;13.816;2024-02-26T11:58:11;100434.34;;;9.41;75.04
17764;BME280;22245;52.832;13.816;2024-02-26T12:01:44;100441.81;;;9.48;73.92
17764;BME280;22245;52.832;13.816;2024-02-26T12:05:11;100437.22;;;9.50;73.24
17764;BME280;22245;52.832;13.816;2024-02-26T12:08:34;100432.06;;;9.58;73.22
17764;BME280;22245;52.832;13.816;2024-02-26T12:11:56;100436.50;;;9.48;74.01
17764;BME280;22245;52.832;13.816;2024-02-26T12:15:22;100436.50;;;9.48;74.49
17764;BME280;22245;52.832;13.816;2024-02-26T12:18:44;100438.34;;;9.57;73.85
17764;BME280;22245;52.832;13.816;2024-02-26T12:22:07;100439.50;;;9.64;74.49
17764;BME280;22245;52.832;13.816;2024-02-26T12:25:30;100437.03;;;9.73;74.35
17764;BME280;22245;52.832;13.816;2024-02-26T12:28:53;100445.16;;;9.81;73.36
17764;BME280;22245;52.832;13.816;2024-02-26T12:32:16;100435.69;;;9.88;72.66
17764;BME280;22245;52.832;13.816;2024-02-26T12:35:37;100439.06;;;9.90;72.42
17764;BME280;22245;52.832;13.816;2024-02-26T12:38:59;100437.66;;;9.96;70.50
17764;BME280;22245;52.832;13.816;2024-02-26T12:42:22;100439.06;;;10.00;70.48
17764;BME280;22245;52.832;13.816;2024-02-26T12:45:44;100436.72;;;10.07;69.69
17764;BME280;22245;52.832;13.816;2024-02-26T12:49:14;100432.69;;;10.12;68.53
17764;BME280;22245;52.832;13.816;2024-02-26T12:52:39;100433.56;;;10.23;67.83
17764;BME280;22245;52.832;13.816;2024-02-26T12:56:01;100430.50;;;10.27;68.31
17764;BME280;22245;52.832;13.816;2024-02-26T12:59:26;100442.28;;;10.35;68.27
17764;BME280;22245;52.832;13.816;2024-02-26T13:02:49;100445.41;;;10.40;68.51
17764;BME280;22245;52.832;13.816;2024-02-26T13:06:13;100452.66;;;10.38;67.77
17764;BME280;22245;52.832;13.816;2024-02-26T13:09:35;100453.47;;;10.38;67.81
17764;BME280;22245;52.832;13.816;2024-02-26T13:12:58;100452.28;;;10.42;67.86
17764;BME280;22245;52.832;13.816;2024-02-26T13:16:24;100458.44;;;10.43;67.93
17764;BME280;22245;52.832;13.816;2024-02-26T13:19:49;100452.66;;;10.38;67.25
17764;BME280;22245;52.832;13.816;2024-02-26T13:23:13;100453.09;;;10.43;67.03
17764;BME280;22245;52.832;13.816;2024-02-26T13:26:35;100454.09;;;10.42;65.14
17764;BME280;22245;52.832;13.816;2024-02-26T13:30:04;100447.09;;;10.51;66.14
17764;BME280;22245;52.832;13.816;2024-02-26T13:33:28;100454.53;;;10.57;66.22
17764;BME280;22245;52.832;13.816;2024-02-26T13:36:50;100445.69;;;10.56;65.65
17764;BME280;22245;52.832;13.816;2024-02-26T13:40:13;100449.06;;;10.59;65.29
17764;BME280;22245;52.832;13.816;2024-02-26T13:43:35;100450.47;;;10.63;66.00
17764;BME280;22245;52.832;13.816;2024-02-26T13:46:56;100444.72;;;10.67;64.60
17764;BME280;22245;52.832;13.816;2024-02-26T13:50:18;100455.09;;;10.70;64.34
17764;BME280;22245;52.832;13.816;2024-02-26T13:53:41;100455.53;;;10.66;64.60
17764;BME280;22245;52.832;13.816;2024-02-26T13:57:04;100451.88;;;10.67;65.50
17764;BME280;22245;52.832;13.816;2024-02-26T14:00:27;100459.72;;;10.68;65.77
17764;BME280;22245;52.832;13.816;2024-02-26T14:03:49;100467.44;;;10.71;65.76
17764;BME280;22245;52.832;13.816;2024-02-26T14:07:11;100469.81;;;10.75;65.69
17764;BME280;22245;52.832;13.816;2024-02-26T14:10:34;100469.28;;;10.71;66.02
17764;BME280;22245;52.832;13.816;2024-02-26T14:13:56;100481.59;;;10.72;65.91
17764;BME280;22245;52.832;13.816;2024-02-26T14:17:18;100477.97;;;10.73;65.76
17764;BME280;22245;52.832;13.816;2024-02-26T14:20:40;100491.41;;;10.71;65.93
17764;BME280;22245;52.832;13.816;2024-02-26T14:24:01;100488.34;;;10.76;66.09
17764;BME280;22245;52.832;13.816;2024-02-26T14:27:23;100494.06;;;10.62;66.52
17764;BME280;22245;52.832;13.816;2024-02-26T14:30:46;100496.75;;;10.62;67.51
17764;BME280;22245;52.832;13.816;2024-02-26T14:34:08;100495.31;;;10.48;67.10
17764;BME280;22245;52.832;13.816;2024-02-26T14:37:30;100517.16;;;10.51;67.31
17764;BME280;22245;52.832;13.816;2024-02-26T14:40:52;100521.81;;;10.59;67.29
17764;BME280;22245;52.832;13.816;2024-02-26T14:44:13;100530.09;;;10.66;66.66
17764;BME280;22245;52.832;13.816;2024-02-26T14:47:36;100526.19;;;10.70;66.62
17764;BME280;22245;52.832;13.816;2024-02-26T14:50:59;100531.34;;;10.71;66.76
17764;BME280;22245;52.832;13.816;2024-02-26T14:54:21;100531.63;;;10.68;64.83
17764;BME280;22245;52.832;13.816;2024-02-26T14:57:42;100532.50;;;10.69;64.82
17764;BME280;22245;52.832;13.816;2024-02-26T15:01:04;100536.41;;;10.75;64.87
17764;BME280;22245;52.832;13.816;2024-02-26T15:04:27;100543.00;;;10.80;65.02
17764;BME280;22245;52.832;13.816;2024-02-26T15:07:49;100537.13;;;10.86;64.04
17764;BME280;22245;52.832;13.816;2024-02-26T15:11:11;100536.16;;;10.88;64.56
17764;BME280;22245;52.832;13.816;2024-02-26T15:14:33;100541.34;;;10.79;64.79
17764;BME280;22245;52.832;13.816;2024-02-26T15:17:55;100540.63;;;10.77;64.36
17764;BME280;22245;52.832;13.816;2024-02-26T15:21:18;100541.47;;;10.78;64.27
17764;BME280;22245;52.832;13.816;2024-02-26T15:24:43;100547.06;;;10.75;63.11
17764;BME280;22245;52.832;13.816;2024-02-26T15:28:07;100560.25;;;10.76;63.15
17764;BME280;22245;52.832;13.816;2024-02-26T15:31:30;100557.16;;;10.71;62.83
17764;BME280;22245;52.832;13.816;2024-02-26T15:34:52;100556.03;;;10.74;61.97
17764;BME280;22245;52.832;13.816;2024-02-26T15:38:15;100565.59;;;10.76;62.38
17764;BME280;22245;52.832;13.816;2024-02-26T15:41:37;100577.50;;;10.72;62.73
17764;BME280;22245;52.832;13.816;2024-02-26T15:44:59;100577.63;;;10.70;64.91
17764;BME280;22245;52.832;13.816;2024-02-26T15:48:20;100583.09;;;10.69;66.43
17764;BME280;22245;52.832;13.816;2024-02-26T15:51:42;100585.06;;;10.67;67.03
17764;BME280;22245;52.832;13.816;2024-02-26T15:55:06;100594.16;;;10.64;68.78
17764;BME280;22245;52.832;13.816;2024-02-26T15:58:31;100594.81;;;10.56;69.72
17764;BME280;22245;52.832;13.816;2024-02-26T16:01:52;100599.44;;;10.54;69.93
17764;BME280;22245;52.832;13.816;2024-02-26T16:05:15;100605.22;;;10.38;70.05
17764;BME280;22245;52.832;13.816;2024-02-26T16:08:37;100599.81;;;10.40;69.50
17764;BME280;22245;52.832;13.816;2024-02-26T16:12:03;100607.88;;;10.38;69.22
17764;BME280;22245;52.832;13.816;2024-02-26T16:15:28;100610.69;;;10.37;69.83
17764;BME280;22245;52.832;13.816;2024-02-26T16:18:50;100614.66;;;10.21;70.00
17764;BME280;22245;52.832;13.816;2024-02-26T16:22:12;100631.59;;;10.20;70.79
17764;BME280;22245;52.832;13.816;2024-02-26T16:25:34;100629.28;;;10.06;71.19
17764;BME280;22245;52.832;13.816;2024-02-26T16:28:57;100636.28;;;10.07;71.89
17764;BME280;22245;52.832;13.816;2024-02-26T16:32:19;100644.16;;;10.08;71.63
17764;BME280;22245;52.832;13.816;2024-02-26T16:35:43;100646.81;;;10.08;72.00
17764;BME280;22245;52.832;13.816;2024-02-26T16:39:04;100647.72;;;9.97;72.14
17764;BME280;22245;52.832;13.816;2024-02-26T16:42:26;100655.50;;;9.89;72.64
17764;BME280;22245;52.832;13.816;2024-02-26T16:50:03;100656.25;;;9.80;73.21
17764;BME280;22245;52.832;13.816;2024-02-26T16:53:27;100649.78;;;9.73;73.34
17764;BME280;22245;52.832;13.816;2024-02-26T16:56:48;100663.22;;;9.71;73.37
17764;BME280;22245;52.832;13.816;2024-02-26T17:00:11;100661.44;;;9.60;74.49
17764;BME280;22245;52.832;13.816;2024-02-26T17:03:37;100664.81;;;9.62;74.18
17764;BME280;22245;52.832;13.816;2024-02-26T17:07:01;100672.06;;;9.60;74.19
17764;BME280;22245;52.832;13.816;2024-02-26T17:10:23;100667.25;;;9.54;74.48
17764;BME280;22245;52.832;13.816;2024-02-26T17:13:45;100673.56;;;9.53;74.66
17764;BME280;22245;52.832;13.816;2024-02-26T17:17:07;100680.81;;;9.51;74.69
17764;BME280;22245;52.832;13.816;2024-02-26T17:20:29;100674.44;;;9.42;75.10
17764;BME280;22245;52.832;13.816;2024-02-26T17:23:52;100679.13;;;9.38;75.20
17764;BME280;22245;52.832;13.816;2024-02-26T17:27:13;100683.75;;;9.25;75.67
17764;BME280;22245;52.832;13.816;2024-02-26T17:30:36;100692.25;;;9.19;75.82
17764;BME280;22245;52.832;13.816;2024-02-26T17:33:58;100692.34;;;9.17;75.78
17764;BME280;22245;52.832;13.816;2024-02-26T17:37:20;100687.91;;;9.18;75.82